createdAt,value
2023-05-21T00:01:48.446Z,31.92
2023-05-21T00:04:15.800Z,33.63
2023-05-21T00:06:43.127Z,29.00
2023-05-21T00:09:12.826Z,28.50
2023-05-21T00:11:40.059Z,29.00
2023-05-21T00:14:07.060Z,30.20
2023-05-21T00:16:34.426Z,28.25
2023-05-21T00:19:02.359Z,26.25
2023-05-21T00:21:29.840Z,32.00
2023-05-21T00:23:57.024Z,30.80
2023-05-21T00:26:24.448Z,29.42
2023-05-21T00:28:51.495Z,29.50
2023-05-21T00:31:19.231Z,29.92
2023-05-21T00:33:46.286Z,32.00
2023-05-21T00:36:14.558Z,30.52
2023-05-21T00:38:46.083Z,35.42
2023-05-21T00:41:13.764Z,30.35
2023-05-21T00:43:42.087Z,30.92
2023-05-21T00:46:21.447Z,29.42
2023-05-21T00:48:51.744Z,28.23
2023-05-21T00:51:22.521Z,29.65
2023-05-21T00:53:55.269Z,30.52
2023-05-21T00:56:28.070Z,29.00
2023-05-21T00:59:01.584Z,31.13
2023-05-21T01:01:34.442Z,29.05
2023-05-21T01:04:04.050Z,29.83
2023-05-21T01:06:36.188Z,28.05
2023-05-21T01:09:07.563Z,29.05
2023-05-21T01:11:48.249Z,30.73
2023-05-21T01:14:20.293Z,29.85
2023-05-21T01:16:53.559Z,30.25
2023-05-21T01:19:27.250Z,27.20
2023-05-21T01:22:08.164Z,30.20
2023-05-21T01:24:37.024Z,32.55
2023-05-21T01:27:10.921Z,30.58
2023-05-21T01:29:38.258Z,27.50
2023-05-21T01:32:32.140Z,32.08
2023-05-21T01:35:13.850Z,28.48
2023-05-21T01:37:48.465Z,33.05
2023-05-21T01:40:26.070Z,25.35
2023-05-21T01:42:53.954Z,32.70
2023-05-21T01:45:25.730Z,29.63
2023-05-21T01:47:56.165Z,31.98
2023-05-21T01:50:25.832Z,29.42
2023-05-21T01:53:01.410Z,29.63
2023-05-21T01:55:30.842Z,27.98
2023-05-21T01:58:01.987Z,29.52
2023-05-21T02:00:30.910Z,27.17
2023-05-21T02:02:58.919Z,26.23
2023-05-21T02:05:26.255Z,29.60
2023-05-21T02:07:54.982Z,26.55
2023-05-21T02:10:21.978Z,34.33
2023-05-21T02:12:49.946Z,31.35
2023-05-21T02:15:19.393Z,28.48
2023-05-21T02:17:48.835Z,29.13
2023-05-21T02:20:18.644Z,31.13
2023-05-21T02:22:52.194Z,31.27
2023-05-21T02:25:22.144Z,31.10
2023-05-21T02:27:54.846Z,31.15
2023-05-21T02:30:26.571Z,32.05
2023-05-21T02:32:59.758Z,30.05
2023-05-21T02:35:27.967Z,29.20
2023-05-21T02:37:59.740Z,31.52
2023-05-21T02:40:28.283Z,32.88
2023-05-21T02:42:57.814Z,27.25
2023-05-21T02:45:26.770Z,28.55
2023-05-21T02:47:55.214Z,29.48
2023-05-21T02:50:22.902Z,30.38
2023-05-21T02:52:50.112Z,29.77
2023-05-21T02:55:17.305Z,31.55
2023-05-21T02:57:44.497Z,28.02
2023-05-21T03:00:12.396Z,31.35
2023-05-21T03:02:40.254Z,32.25
2023-05-21T03:05:07.925Z,29.25
2023-05-21T03:07:35.192Z,29.65
2023-05-21T03:10:02.116Z,28.92
2023-05-21T03:12:29.379Z,32.33
2023-05-21T03:14:56.441Z,32.58
2023-05-21T03:17:25.316Z,29.85
2023-05-21T03:19:52.577Z,28.90
2023-05-21T03:22:20.446Z,33.58
2023-05-21T03:24:47.461Z,30.73
2023-05-21T03:27:14.846Z,30.90
2023-05-21T03:29:43.269Z,32.03
2023-05-21T03:32:10.826Z,31.67
2023-05-21T03:34:37.786Z,29.92
2023-05-21T03:37:07.950Z,30.55
2023-05-21T03:39:35.327Z,30.65
2023-05-21T03:42:02.694Z,30.85
2023-05-21T03:44:32.524Z,30.55
2023-05-21T03:47:00.033Z,29.63
2023-05-21T03:49:26.963Z,29.05
2023-05-21T03:51:54.327Z,26.58
2023-05-21T03:54:21.447Z,30.90
2023-05-21T03:56:48.697Z,28.90
2023-05-21T03:59:15.671Z,33.80
2023-05-21T04:01:43.652Z,32.22
2023-05-21T04:04:10.805Z,30.35
2023-05-21T04:06:38.413Z,29.25
2023-05-21T04:09:05.332Z,30.48
2023-05-21T04:11:32.586Z,30.92
2023-05-21T04:14:02.003Z,33.63
2023-05-21T04:16:35.608Z,31.17
2023-05-21T04:19:03.579Z,29.98
2023-05-21T04:21:32.381Z,28.75
2023-05-21T04:24:01.497Z,30.77
2023-05-21T04:26:35.427Z,29.58
2023-05-21T04:29:03.756Z,32.40
2023-05-21T04:31:33.218Z,34.58
2023-05-21T04:34:02.624Z,30.40
2023-05-21T04:36:32.225Z,30.17
2023-05-21T04:39:01.943Z,32.17
2023-05-21T04:41:31.869Z,31.40
2023-05-21T04:44:01.410Z,32.92
2023-05-21T04:46:31.581Z,37.60
2023-05-21T04:49:03.856Z,30.85
2023-05-21T04:51:32.894Z,32.17
2023-05-21T04:54:02.184Z,28.27
2023-05-21T04:56:32.430Z,30.67
2023-05-21T04:59:01.955Z,28.17
2023-05-21T05:01:35.279Z,28.35
2023-05-21T05:04:02.480Z,29.27
2023-05-21T05:06:29.771Z,28.85
2023-05-21T05:08:57.115Z,25.30
2023-05-21T05:11:24.358Z,27.63
2023-05-21T05:13:52.332Z,24.90
2023-05-21T05:16:25.152Z,28.75
2023-05-21T05:18:53.201Z,27.10
2023-05-21T05:21:23.681Z,29.48
2023-05-21T05:23:50.847Z,30.48
2023-05-21T05:26:18.129Z,27.52
2023-05-21T05:28:46.368Z,27.08
2023-05-21T05:31:13.801Z,27.95
2023-05-21T05:33:41.483Z,28.77
2023-05-21T05:36:08.871Z,27.02
2023-05-21T05:38:36.132Z,24.33
2023-05-21T05:41:03.458Z,25.10
2023-05-21T05:43:30.614Z,24.05
2023-05-21T05:45:58.088Z,22.75
2023-05-21T05:48:25.108Z,21.83
2023-05-21T05:50:54.709Z,24.02
2023-05-21T05:53:21.890Z,24.95
2023-05-21T05:55:49.221Z,23.10
2023-05-21T05:58:16.821Z,22.50
2023-05-21T06:00:44.388Z,24.15
2023-05-21T06:03:12.836Z,21.60
2023-05-21T06:05:40.537Z,20.95
2023-05-21T06:08:07.803Z,29.33
2023-05-21T06:10:35.332Z,21.38
2023-05-21T06:13:02.391Z,23.98
2023-05-21T06:15:30.428Z,25.60
2023-05-21T06:17:57.466Z,23.05
2023-05-21T06:20:24.838Z,26.58
2023-05-21T06:22:51.822Z,22.17
2023-05-21T06:25:19.388Z,20.70
2023-05-21T06:27:46.517Z,20.55
2023-05-21T06:30:13.778Z,25.75
2023-05-21T06:32:40.929Z,21.50
2023-05-21T06:35:08.908Z,21.17
2023-05-21T06:37:36.010Z,19.23
2023-05-21T06:40:03.902Z,20.73
2023-05-21T06:42:30.928Z,25.15
2023-05-21T06:44:58.177Z,20.85
2023-05-21T06:47:25.249Z,20.48
2023-05-21T06:49:52.570Z,21.30
2023-05-21T06:52:19.581Z,18.85
2023-05-21T06:54:46.971Z,18.83
2023-05-21T06:57:16.481Z,20.67
2023-05-21T06:59:43.996Z,18.25
2023-05-21T07:02:11.170Z,23.38
2023-05-21T07:04:38.598Z,19.63
2023-05-21T07:07:05.776Z,18.65
2023-05-21T07:09:33.196Z,17.25
2023-05-21T07:12:01.253Z,21.83
2023-05-21T07:14:28.556Z,18.20
2023-05-21T07:16:55.730Z,18.08
2023-05-21T07:19:23.115Z,16.10
2023-05-21T07:21:50.142Z,19.13
2023-05-21T07:24:17.461Z,17.27
2023-05-21T07:26:44.548Z,18.67
2023-05-21T07:29:11.770Z,17.17
2023-05-21T07:31:38.926Z,21.45
2023-05-21T07:34:06.452Z,15.95
2023-05-21T07:36:33.819Z,17.15
2023-05-21T07:39:01.778Z,16.55
2023-05-21T07:41:28.863Z,24.42
2023-05-21T07:43:56.377Z,17.63
2023-05-21T07:46:23.409Z,16.67
2023-05-21T07:48:50.800Z,20.20
2023-05-21T07:51:17.895Z,17.60
2023-05-21T07:53:45.185Z,19.90
2023-05-21T07:56:12.245Z,16.08
2023-05-21T07:58:40.737Z,17.10
2023-05-21T08:01:07.701Z,21.00
2023-05-21T08:03:35.090Z,20.00
2023-05-21T08:06:02.336Z,17.60
2023-05-21T08:08:30.055Z,17.38
2023-05-21T08:10:57.204Z,19.88
2023-05-21T08:13:24.531Z,19.23
2023-05-21T08:15:53.487Z,16.55
2023-05-21T08:18:20.924Z,17.95
2023-05-21T08:20:48.448Z,16.73
2023-05-21T08:23:15.830Z,16.77
2023-05-21T08:25:42.962Z,17.83
2023-05-21T08:28:10.381Z,15.90
2023-05-21T08:30:37.446Z,16.63
2023-05-21T08:33:04.866Z,17.17
2023-05-21T08:35:32.022Z,18.27
2023-05-21T08:37:59.554Z,19.40
2023-05-21T08:40:26.577Z,15.20
2023-05-21T08:42:54.292Z,17.63
2023-05-21T08:45:23.447Z,16.15
2023-05-21T08:47:57.709Z,16.67
2023-05-21T08:50:28.276Z,15.33
2023-05-21T08:52:55.730Z,16.85
2023-05-21T08:55:23.734Z,16.73
2023-05-21T08:57:54.465Z,15.88
2023-05-21T09:00:21.840Z,16.65
2023-05-21T09:02:49.172Z,16.70
2023-05-21T09:05:17.633Z,12.77
2023-05-21T09:08:02.930Z,14.07
2023-05-21T09:10:37.093Z,13.85
2023-05-21T09:13:05.269Z,13.63
2023-05-21T09:15:32.891Z,14.48
2023-05-21T09:18:00.447Z,13.85
2023-05-21T09:20:29.300Z,14.23
2023-05-21T09:22:56.651Z,13.38
2023-05-21T09:25:29.777Z,13.10
2023-05-21T09:27:57.840Z,15.63
2023-05-21T09:30:28.523Z,12.18
2023-05-21T09:32:59.703Z,10.57
2023-05-21T09:35:27.320Z,12.00
2023-05-21T09:37:57.568Z,11.45
2023-05-21T09:40:25.209Z,12.50
2023-05-21T09:42:55.745Z,14.32
2023-05-21T09:45:28.250Z,13.45
2023-05-21T09:47:56.518Z,12.45
2023-05-21T09:50:31.497Z,11.13
2023-05-21T09:52:58.828Z,11.48
2023-05-21T09:55:27.167Z,16.25
2023-05-21T09:57:54.450Z,14.35
2023-05-21T10:00:24.937Z,12.38
2023-05-21T10:02:56.310Z,16.42
2023-05-21T10:05:31.008Z,11.70
2023-05-21T10:08:02.301Z,11.18
2023-05-21T10:10:32.583Z,11.82
2023-05-21T10:13:08.829Z,10.65
2023-05-21T10:15:44.158Z,10.85
2023-05-21T10:18:13.507Z,10.85
2023-05-21T10:20:41.474Z,10.13
2023-05-21T10:23:10.007Z,10.93
2023-05-21T10:25:37.825Z,9.68
2023-05-21T10:28:07.146Z,9.82
2023-05-21T10:30:36.356Z,10.20
2023-05-21T10:33:04.954Z,10.70
2023-05-21T10:35:34.474Z,12.52
2023-05-21T10:38:04.953Z,9.55
2023-05-21T10:40:32.342Z,9.23
2023-05-21T10:43:18.595Z,9.93
2023-05-21T10:46:06.918Z,9.52
2023-05-21T10:49:04.923Z,12.52
2023-05-21T10:51:39.825Z,11.20
2023-05-21T10:54:50.084Z,10.00
2023-05-21T10:57:37.661Z,9.55
2023-05-21T11:00:07.974Z,10.18
2023-05-21T11:02:35.492Z,9.50
2023-05-21T11:05:04.547Z,8.98
2023-05-21T11:08:26.234Z,8.48
2023-05-21T11:10:57.913Z,9.40
2023-05-21T11:13:27.104Z,8.82
2023-05-21T11:16:01.681Z,9.55
2023-05-21T11:18:38.082Z,8.60
2023-05-21T11:21:06.878Z,12.23
2023-05-21T11:23:59.764Z,8.38
2023-05-21T11:26:52.402Z,10.40
2023-05-21T11:29:20.074Z,9.70
2023-05-21T11:32:01.521Z,8.57
2023-05-21T11:34:37.701Z,8.82
2023-05-21T11:37:33.492Z,8.80
2023-05-21T11:40:28.394Z,8.45
2023-05-21T11:42:56.925Z,9.00
2023-05-21T11:45:29.486Z,10.05
2023-05-21T11:47:57.614Z,8.82
2023-05-21T11:50:25.843Z,18.35
2023-05-21T11:52:53.284Z,8.52
2023-05-21T11:55:26.024Z,7.72
2023-05-21T11:57:55.656Z,9.65
2023-05-21T12:00:23.293Z,9.27
2023-05-21T12:02:52.924Z,8.40
2023-05-21T12:05:21.028Z,7.15
2023-05-21T12:07:54.577Z,8.73
2023-05-21T12:10:23.317Z,8.73
2023-05-21T12:12:56.418Z,9.45
2023-05-21T12:15:27.202Z,7.23
2023-05-21T12:17:56.220Z,8.35
2023-05-21T12:20:26.296Z,7.05
2023-05-21T12:22:54.262Z,8.00
2023-05-21T12:25:21.760Z,10.85
2023-05-21T12:27:52.894Z,7.50
2023-05-21T12:30:21.349Z,6.65
2023-05-21T12:32:49.347Z,7.40
2023-05-21T12:35:24.214Z,6.75
2023-05-21T12:37:52.674Z,8.02
2023-05-21T12:40:20.457Z,7.20
2023-05-21T12:42:47.899Z,7.53
2023-05-21T12:45:15.340Z,7.97
2023-05-21T12:47:50.484Z,7.03
2023-05-21T12:50:21.931Z,6.95
2023-05-21T12:52:49.183Z,7.45
2023-05-21T12:55:17.475Z,7.95
2023-05-21T12:57:44.665Z,6.53
2023-05-21T13:00:12.259Z,5.40
2023-05-21T13:02:44.408Z,5.53
2023-05-21T13:05:18.318Z,4.97
2023-05-21T13:07:46.716Z,5.80
2023-05-21T13:10:18.910Z,6.13
2023-05-21T13:12:46.644Z,6.35
2023-05-21T13:15:15.192Z,5.72
2023-05-21T13:17:42.636Z,5.85
2023-05-21T13:20:21.302Z,6.47
2023-05-21T13:22:52.028Z,7.15
2023-05-21T13:25:24.639Z,7.72
2023-05-21T13:27:53.707Z,6.13
2023-05-21T13:30:22.487Z,5.32
2023-05-21T13:32:50.110Z,11.52
2023-05-21T13:35:17.678Z,5.80
2023-05-21T13:37:45.266Z,4.85
2023-05-21T13:40:17.381Z,6.47
2023-05-21T13:42:48.732Z,6.47
2023-05-21T13:45:20.120Z,5.95
2023-05-21T13:47:48.454Z,6.25
2023-05-21T13:50:16.562Z,11.07
2023-05-21T13:52:44.001Z,6.20
2023-05-21T13:55:11.001Z,5.40
2023-05-21T13:57:38.453Z,5.85
2023-05-21T14:00:09.154Z,12.50
2023-05-21T14:02:36.566Z,5.47
2023-05-21T14:05:03.703Z,9.23
2023-05-21T14:07:31.034Z,6.07
2023-05-21T14:09:58.263Z,5.95
2023-05-21T14:12:26.691Z,5.35
2023-05-21T14:14:53.722Z,6.05
2023-05-21T14:17:21.361Z,5.38
2023-05-21T14:19:48.434Z,5.55
2023-05-21T14:22:15.684Z,5.88
2023-05-21T14:24:42.573Z,5.70
2023-05-21T14:27:09.798Z,5.15
2023-05-21T14:29:36.750Z,6.57
2023-05-21T14:32:04.130Z,4.78
2023-05-21T14:34:31.225Z,5.15
2023-05-21T14:36:58.421Z,7.55
2023-05-21T14:39:25.494Z,5.57
2023-05-21T14:41:52.719Z,8.27
2023-05-21T14:44:20.042Z,6.03
2023-05-21T14:46:47.388Z,8.27
2023-05-21T14:49:14.656Z,5.20
2023-05-21T14:51:43.752Z,5.05
2023-05-21T14:54:10.968Z,5.03
2023-05-21T14:56:38.133Z,6.38
2023-05-21T14:59:05.111Z,4.90
2023-05-21T15:01:32.396Z,6.03
2023-05-21T15:03:59.643Z,4.68
2023-05-21T15:06:27.834Z,5.55
2023-05-21T15:08:54.815Z,5.25
2023-05-21T15:11:22.451Z,4.85
2023-05-21T15:13:49.397Z,9.43
2023-05-21T15:16:18.060Z,5.70
2023-05-21T15:18:46.582Z,5.55
2023-05-21T15:21:13.860Z,7.38
2023-05-21T15:23:40.774Z,5.15
2023-05-21T15:26:09.189Z,4.90
2023-05-21T15:28:36.221Z,4.60
2023-05-21T15:31:03.413Z,4.82
2023-05-21T15:33:30.388Z,5.78
2023-05-21T15:35:57.573Z,4.80
2023-05-21T15:38:24.551Z,5.60
2023-05-21T15:40:52.015Z,4.78
2023-05-21T15:43:18.936Z,6.85
2023-05-21T15:45:46.113Z,4.72
2023-05-21T15:48:13.177Z,4.97
2023-05-21T15:50:40.726Z,6.47
2023-05-21T15:53:07.764Z,4.63
2023-05-21T15:55:35.268Z,9.77
2023-05-21T15:58:04.018Z,4.60
2023-05-21T16:00:31.317Z,5.03
2023-05-21T16:02:58.409Z,4.22
2023-05-21T16:05:26.693Z,4.88
2023-05-21T16:07:53.555Z,5.30
2023-05-21T16:10:21.796Z,5.57
2023-05-21T16:12:48.867Z,4.78
2023-05-21T16:15:16.753Z,4.82
2023-05-21T16:17:43.793Z,5.35
2023-05-21T16:20:11.841Z,5.05
2023-05-21T16:22:38.968Z,7.68
2023-05-21T16:25:07.104Z,5.43
2023-05-21T16:27:35.179Z,6.35
2023-05-21T16:30:02.691Z,5.82
2023-05-21T16:32:29.773Z,7.55
2023-05-21T16:34:57.097Z,5.25
2023-05-21T16:37:24.113Z,8.75
2023-05-21T16:39:52.417Z,6.50
2023-05-21T16:42:19.579Z,6.00
2023-05-21T16:44:46.740Z,6.63
2023-05-21T16:47:14.045Z,5.55
2023-05-21T16:49:41.362Z,5.43
2023-05-21T16:52:08.283Z,5.43
2023-05-21T16:54:35.542Z,6.45
2023-05-21T16:57:02.475Z,8.13
2023-05-21T16:59:29.968Z,5.57
2023-05-21T17:01:57.056Z,7.10
2023-05-21T17:04:24.397Z,6.85
2023-05-21T17:06:51.282Z,5.88
2023-05-21T17:09:18.875Z,6.18
2023-05-21T17:11:46.059Z,5.75
2023-05-21T17:14:17.557Z,7.47
2023-05-21T17:16:50.758Z,6.30
2023-05-21T17:19:18.045Z,6.35
2023-05-21T17:21:44.933Z,5.70
2023-05-21T17:24:12.132Z,6.32
2023-05-21T17:26:39.016Z,10.65
2023-05-21T17:29:06.292Z,6.35
2023-05-21T17:31:33.627Z,5.95
2023-05-21T17:34:00.951Z,7.05
2023-05-21T17:36:27.953Z,5.63
2023-05-21T17:38:55.610Z,6.22
2023-05-21T17:41:22.598Z,5.85
2023-05-21T17:43:49.812Z,7.70
2023-05-21T17:46:18.335Z,5.90
2023-05-21T17:48:45.936Z,6.28
2023-05-21T17:51:13.181Z,7.00
2023-05-21T17:53:41.217Z,8.27
2023-05-21T17:56:11.289Z,9.88
2023-05-21T17:58:38.877Z,6.18
2023-05-21T18:01:06.684Z,6.25
2023-05-21T18:03:34.165Z,6.35
2023-05-21T18:06:01.246Z,7.65
2023-05-21T18:08:28.680Z,7.28
2023-05-21T18:10:55.766Z,5.85
2023-05-21T18:13:22.944Z,5.85
2023-05-21T18:15:50.027Z,7.25
2023-05-21T18:18:20.713Z,6.30
2023-05-21T18:20:50.245Z,6.53
2023-05-21T18:23:17.819Z,6.93
2023-05-21T18:25:44.722Z,5.97
2023-05-21T18:28:11.944Z,7.35
2023-05-21T18:30:39.328Z,6.10
2023-05-21T18:33:08.365Z,8.27
2023-05-21T18:35:35.527Z,6.38
2023-05-21T18:38:04.275Z,7.22
2023-05-21T18:40:33.212Z,11.45
2023-05-21T18:43:00.789Z,8.00
2023-05-21T18:45:28.128Z,6.95
2023-05-21T18:47:55.905Z,7.05
2023-05-21T18:50:22.969Z,8.05
2023-05-21T18:52:56.290Z,6.18
2023-05-21T18:55:23.473Z,6.03
2023-05-21T18:57:51.255Z,6.18
2023-05-21T19:00:18.729Z,6.72
2023-05-21T19:02:46.722Z,5.60
2023-05-21T19:05:13.911Z,6.45
2023-05-21T19:07:41.374Z,6.22
2023-05-21T19:10:09.320Z,9.07
2023-05-21T19:12:36.593Z,8.25
2023-05-21T19:15:04.255Z,5.88
2023-05-21T19:17:31.874Z,6.32
2023-05-21T19:19:58.871Z,6.22
2023-05-21T19:22:27.671Z,5.55
2023-05-21T19:24:54.962Z,5.78
2023-05-21T19:27:22.249Z,7.28
2023-05-21T19:29:52.114Z,6.50
2023-05-21T19:32:20.987Z,5.72
2023-05-21T19:34:48.363Z,6.10
2023-05-21T19:37:16.799Z,6.82
2023-05-21T19:39:44.393Z,8.38
2023-05-21T19:42:12.087Z,6.53
2023-05-21T19:44:43.213Z,6.38
2023-05-21T19:47:10.730Z,7.63
2023-05-21T19:49:37.829Z,7.18
2023-05-21T19:52:06.193Z,6.03
2023-05-21T19:54:33.455Z,6.28
2023-05-21T19:57:01.043Z,5.97
2023-05-21T19:59:28.403Z,6.22
2023-05-21T20:01:56.262Z,6.43
2023-05-21T20:04:23.675Z,8.68
2023-05-21T20:06:52.047Z,6.97
2023-05-21T20:09:19.164Z,6.47
2023-05-21T20:11:48.212Z,6.72
2023-05-21T20:14:15.291Z,6.45
2023-05-21T20:16:42.835Z,6.28
2023-05-21T20:19:10.935Z,6.07
2023-05-21T20:21:38.276Z,7.22
2023-05-21T20:24:05.969Z,7.55
2023-05-21T20:26:35.003Z,7.22
2023-05-21T20:29:02.368Z,6.95
2023-05-21T20:31:29.856Z,7.90
2023-05-21T20:33:57.432Z,6.10
2023-05-21T20:36:27.579Z,6.53
2023-05-21T20:38:55.944Z,6.28
2023-05-21T20:41:26.373Z,7.45
2023-05-21T20:43:55.429Z,6.00
2023-05-21T20:46:23.418Z,6.82
2023-05-21T20:48:50.447Z,6.03
2023-05-21T20:51:19.636Z,6.40
2023-05-21T20:53:47.271Z,7.38
2023-05-21T20:56:17.019Z,6.72
2023-05-21T20:58:46.712Z,7.03
2023-05-21T21:01:17.478Z,6.15
2023-05-21T21:03:46.215Z,6.97
2023-05-21T21:06:18.794Z,6.22
2023-05-21T21:08:50.133Z,6.18
2023-05-21T21:11:18.671Z,6.05
2023-05-21T21:13:46.293Z,6.97
2023-05-21T21:16:14.310Z,6.93
2023-05-21T21:18:41.602Z,6.38
2023-05-21T21:21:08.905Z,6.88
2023-05-21T21:23:36.200Z,6.60
2023-05-21T21:26:03.653Z,5.95
2023-05-21T21:28:31.909Z,7.40
2023-05-21T21:31:00.694Z,8.50
2023-05-21T21:33:28.766Z,6.50
2023-05-21T21:35:56.390Z,13.13
2023-05-21T21:38:25.586Z,6.07
2023-05-21T21:40:54.606Z,5.70
2023-05-21T21:43:22.325Z,6.43
2023-05-21T21:45:49.880Z,7.93
2023-05-21T21:48:17.691Z,7.03
2023-05-21T21:50:45.360Z,8.25
2023-05-21T21:53:14.193Z,10.85
2023-05-21T21:55:41.584Z,5.85
2023-05-21T21:58:08.679Z,7.10
2023-05-21T22:00:37.046Z,6.50
2023-05-21T22:03:04.810Z,7.28
2023-05-21T22:05:32.730Z,6.43
2023-05-21T22:08:00.408Z,6.28
2023-05-21T22:10:27.696Z,6.22
2023-05-21T22:12:54.814Z,6.28
2023-05-21T22:15:28.757Z,7.45
2023-05-21T22:17:56.042Z,6.50
2023-05-21T22:20:23.677Z,6.78
2023-05-21T22:22:51.303Z,6.55
2023-05-21T22:25:19.817Z,5.93
2023-05-21T22:27:46.767Z,7.18
2023-05-21T22:30:14.353Z,7.03
2023-05-21T22:32:41.442Z,6.00
2023-05-21T22:35:09.835Z,6.47
2023-05-21T22:37:37.765Z,8.20
2023-05-21T22:40:07.489Z,7.70
2023-05-21T22:42:36.478Z,6.95
2023-05-21T22:45:05.129Z,6.95
2023-05-21T22:47:32.405Z,7.78
2023-05-21T22:50:01.578Z,17.80
2023-05-21T22:52:29.009Z,7.03
2023-05-21T22:54:57.979Z,6.20
2023-05-21T22:57:25.004Z,6.97
2023-05-21T22:59:52.603Z,6.45
2023-05-21T23:02:19.999Z,6.93
2023-05-21T23:04:49.282Z,6.68
2023-05-21T23:07:16.449Z,6.43
2023-05-21T23:09:43.694Z,6.50
2023-05-21T23:12:11.075Z,6.50
2023-05-21T23:14:38.426Z,6.38
2023-05-21T23:17:05.798Z,6.40
2023-05-21T23:19:33.334Z,6.57
2023-05-21T23:22:00.724Z,8.88
2023-05-21T23:24:29.584Z,10.27
2023-05-21T23:27:01.878Z,6.43
2023-05-21T23:29:30.877Z,7.40
2023-05-21T23:31:58.206Z,7.57
2023-05-21T23:34:25.912Z,6.43
2023-05-21T23:36:53.162Z,6.82
2023-05-21T23:39:21.249Z,6.22
2023-05-21T23:41:49.071Z,6.50
2023-05-21T23:44:16.826Z,7.18
2023-05-21T23:46:43.888Z,6.93
2023-05-21T23:49:11.772Z,10.73
2023-05-21T23:51:39.798Z,7.50
2023-05-21T23:54:09.222Z,7.78
2023-05-21T23:56:36.250Z,6.78
2023-05-21T23:59:03.599Z,7.18
